createdAt,value
2023-02-26T00:00:37.207Z,973.65
2023-02-26T00:01:37.187Z,973.60
2023-02-26T00:02:37.176Z,973.61
2023-02-26T00:03:37.257Z,973.63
2023-02-26T00:04:37.106Z,973.65
2023-02-26T00:05:37.115Z,973.64
2023-02-26T00:06:37.153Z,973.65
2023-02-26T00:07:37.095Z,973.72
2023-02-26T00:08:37.091Z,973.70
2023-02-26T00:09:37.061Z,973.69
2023-02-26T00:10:37.077Z,973.74
2023-02-26T00:11:37.023Z,973.74
2023-02-26T00:12:37.027Z,973.74
2023-02-26T00:13:36.994Z,973.75
2023-02-26T00:14:36.987Z,973.79
2023-02-26T00:15:36.977Z,973.78
2023-02-26T00:16:37.069Z,973.76
2023-02-26T00:17:36.958Z,973.78
2023-02-26T00:18:36.938Z,973.76
2023-02-26T00:19:36.916Z,973.79
2023-02-26T00:20:36.916Z,973.76
2023-02-26T00:21:36.907Z,973.75
2023-02-26T00:22:36.920Z,973.86
2023-02-26T00:23:36.868Z,973.80
2023-02-26T00:24:36.887Z,973.84
2023-02-26T00:25:36.844Z,973.82
2023-02-26T00:26:36.836Z,973.83
2023-02-26T00:27:36.835Z,973.81
2023-02-26T00:28:36.812Z,973.85
2023-02-26T00:29:36.799Z,973.84
2023-02-26T00:30:36.834Z,973.90
2023-02-26T00:31:36.818Z,973.83
2023-02-26T00:32:36.802Z,973.87
2023-02-26T00:33:36.744Z,973.84
2023-02-26T00:34:36.763Z,973.89
2023-02-26T00:35:36.730Z,973.91
2023-02-26T00:36:36.711Z,973.84
2023-02-26T00:37:36.729Z,973.85
2023-02-26T00:38:36.687Z,973.92
2023-02-26T00:39:36.711Z,973.85
2023-02-26T00:40:36.687Z,973.92
2023-02-26T00:41:36.711Z,973.91
2023-02-26T00:42:36.646Z,973.92
2023-02-26T00:43:36.626Z,973.90
2023-02-26T00:44:36.624Z,973.92
2023-02-26T00:45:36.586Z,973.98
2023-02-26T00:46:36.584Z,973.92
2023-02-26T00:47:36.598Z,973.93
2023-02-26T00:48:36.567Z,974.03
2023-02-26T00:49:36.548Z,974.01
2023-02-26T00:50:36.542Z,973.99
2023-02-26T00:51:36.526Z,974.02
2023-02-26T00:52:36.582Z,973.94
2023-02-26T00:53:36.505Z,973.98
2023-02-26T00:54:36.487Z,973.99
2023-02-26T00:55:36.469Z,974.01
2023-02-26T00:56:36.492Z,973.99
2023-02-26T00:57:36.458Z,974.01
2023-02-26T00:58:36.468Z,973.99
2023-02-26T00:59:36.428Z,973.96
2023-02-26T01:00:36.418Z,973.98
2023-02-26T01:01:36.546Z,973.99
2023-02-26T01:02:36.399Z,973.94
2023-02-26T01:03:36.419Z,973.92
2023-02-26T01:04:36.366Z,973.94
2023-02-26T01:05:36.372Z,973.95
2023-02-26T01:06:36.345Z,973.98
2023-02-26T01:07:36.355Z,973.96
2023-02-26T01:08:36.307Z,973.96
2023-02-26T01:09:36.300Z,973.92
2023-02-26T01:10:36.296Z,973.93
2023-02-26T01:11:36.280Z,973.93
2023-02-26T01:12:36.264Z,973.94
2023-02-26T01:13:36.264Z,973.92
2023-02-26T01:14:36.254Z,973.94
2023-02-26T01:15:36.268Z,973.90
2023-02-26T01:16:36.223Z,973.98
2023-02-26T01:17:36.190Z,973.89
2023-02-26T01:18:36.197Z,973.87
2023-02-26T01:19:36.180Z,973.92
2023-02-26T01:20:36.155Z,973.95
2023-02-26T01:21:36.171Z,973.92
2023-02-26T01:22:36.150Z,973.98
2023-02-26T01:23:36.126Z,973.99
2023-02-26T01:24:36.116Z,973.96
2023-02-26T01:25:36.097Z,973.95
2023-02-26T01:26:36.114Z,973.94
2023-02-26T01:27:36.097Z,973.91
2023-02-26T01:28:36.111Z,973.91
2023-02-26T01:29:36.064Z,973.89
2023-02-26T01:30:36.039Z,973.89
2023-02-26T01:31:36.116Z,973.88
2023-02-26T01:32:36.049Z,973.91
2023-02-26T01:33:35.998Z,973.93
2023-02-26T01:34:35.987Z,973.91
2023-02-26T01:35:35.992Z,973.91
2023-02-26T01:36:35.987Z,973.93
2023-02-26T01:37:36.067Z,973.92
2023-02-26T01:38:35.958Z,973.90
2023-02-26T01:39:35.950Z,973.95
2023-02-26T01:40:35.918Z,973.92
2023-02-26T01:41:35.906Z,973.90
2023-02-26T01:42:35.890Z,973.87
2023-02-26T01:43:35.893Z,973.93
2023-02-26T01:44:35.864Z,973.94
2023-02-26T01:45:35.852Z,973.90
2023-02-26T01:46:35.893Z,973.92
2023-02-26T01:47:35.819Z,973.94
2023-02-26T01:48:35.830Z,973.96
2023-02-26T01:49:35.803Z,973.94
2023-02-26T01:50:35.784Z,973.99
2023-02-26T01:51:35.770Z,973.94
2023-02-26T01:52:35.780Z,974.07
2023-02-26T01:53:35.769Z,973.98
2023-02-26T01:54:35.743Z,974.02
2023-02-26T01:55:35.723Z,973.98
2023-02-26T01:56:35.711Z,974.07
2023-02-26T01:57:35.714Z,974.03
2023-02-26T01:58:35.708Z,974.12
2023-02-26T01:59:35.695Z,974.06
2023-02-26T02:00:35.698Z,974.03
2023-02-26T02:01:35.661Z,974.11
2023-02-26T02:02:35.720Z,974.11
2023-02-26T02:03:35.793Z,974.07
2023-02-26T02:04:35.648Z,974.03
2023-02-26T02:05:35.605Z,974.06
2023-02-26T02:06:35.596Z,973.99
2023-02-26T02:07:35.579Z,974.09
2023-02-26T02:08:35.611Z,974.04
2023-02-26T02:09:35.561Z,974.12
2023-02-26T02:10:35.541Z,974.09
2023-02-26T02:11:35.531Z,974.09
2023-02-26T02:12:35.510Z,974.11
2023-02-26T02:13:35.555Z,974.12
2023-02-26T02:14:35.504Z,974.07
2023-02-26T02:15:35.505Z,974.12
2023-02-26T02:16:35.480Z,974.11
2023-02-26T02:17:35.489Z,974.08
2023-02-26T02:18:35.462Z,974.23
2023-02-26T02:19:35.458Z,974.15
2023-02-26T02:20:35.434Z,974.14
2023-02-26T02:21:35.434Z,974.15
2023-02-26T02:22:35.403Z,974.20
2023-02-26T02:23:35.391Z,974.19
2023-02-26T02:24:35.399Z,974.16
2023-02-26T02:25:35.380Z,974.21
2023-02-26T02:26:35.363Z,974.16
2023-02-26T02:27:35.356Z,974.23
2023-02-26T02:28:35.337Z,974.23
2023-02-26T02:29:35.326Z,974.24
2023-02-26T02:30:35.304Z,974.25
2023-02-26T02:31:35.425Z,974.28
2023-02-26T02:32:35.458Z,974.32
2023-02-26T02:33:35.285Z,974.26
2023-02-26T02:34:35.244Z,974.28
2023-02-26T02:35:35.265Z,974.30
2023-02-26T02:36:35.243Z,974.33
2023-02-26T02:37:35.237Z,974.34
2023-02-26T02:38:35.236Z,974.36
2023-02-26T02:39:35.221Z,974.35
2023-02-26T02:40:35.181Z,974.41
2023-02-26T02:41:35.209Z,974.39
2023-02-26T02:42:35.164Z,974.38
2023-02-26T02:43:35.162Z,974.45
2023-02-26T02:44:35.148Z,974.43
2023-02-26T02:45:35.182Z,974.44
2023-02-26T02:46:35.114Z,974.41
2023-02-26T02:47:35.104Z,974.44
2023-02-26T02:48:35.115Z,974.42
2023-02-26T02:49:35.108Z,974.45
2023-02-26T02:50:35.068Z,974.45
2023-02-26T02:51:35.062Z,974.47
2023-02-26T02:52:35.033Z,974.48
2023-02-26T02:53:35.059Z,974.45
2023-02-26T02:54:34.985Z,974.50
2023-02-26T02:55:35.015Z,974.52
2023-02-26T02:56:34.984Z,974.52
2023-02-26T02:57:34.980Z,974.46
2023-02-26T02:58:34.956Z,974.47
2023-02-26T02:59:34.983Z,974.47
2023-02-26T03:00:34.964Z,974.54
2023-02-26T03:01:34.924Z,974.49
2023-02-26T03:02:34.933Z,974.57
2023-02-26T03:03:34.898Z,974.52
2023-02-26T03:04:34.896Z,974.53
2023-02-26T03:05:34.890Z,974.57
2023-02-26T03:06:35.269Z,974.58
2023-02-26T03:07:34.848Z,974.57
2023-02-26T03:08:34.857Z,974.51
2023-02-26T03:09:34.847Z,974.53
2023-02-26T03:10:34.837Z,974.58
2023-02-26T03:11:34.812Z,974.62
2023-02-26T03:12:34.786Z,974.62
2023-02-26T03:13:34.792Z,974.57
2023-02-26T03:14:34.775Z,974.59
2023-02-26T03:15:34.789Z,974.62
2023-02-26T03:16:34.740Z,974.59
2023-02-26T03:17:34.717Z,974.62
2023-02-26T03:18:34.727Z,974.63
2023-02-26T03:19:34.687Z,974.61
2023-02-26T03:20:34.687Z,974.66
2023-02-26T03:21:34.656Z,974.69
2023-02-26T03:22:34.639Z,974.66
2023-02-26T03:23:34.683Z,974.63
2023-02-26T03:24:34.622Z,974.73
2023-02-26T03:25:34.620Z,974.68
2023-02-26T03:26:34.595Z,974.69
2023-02-26T03:27:34.592Z,974.72
2023-02-26T03:28:34.597Z,974.74
2023-02-26T03:29:34.590Z,974.75
2023-02-26T03:30:34.568Z,974.76
2023-02-26T03:31:34.601Z,974.78
2023-02-26T03:32:34.545Z,974.78
2023-02-26T03:33:34.522Z,974.83
2023-02-26T03:34:34.518Z,974.80
2023-02-26T03:35:34.531Z,974.78
2023-02-26T03:36:34.471Z,974.83
2023-02-26T03:37:34.479Z,974.83
2023-02-26T03:38:34.452Z,974.83
2023-02-26T03:39:34.455Z,974.83
2023-02-26T03:40:34.455Z,974.93
2023-02-26T03:41:34.433Z,974.89
2023-02-26T03:42:34.413Z,974.83
2023-02-26T03:43:34.432Z,974.90
2023-02-26T03:44:34.393Z,974.79
2023-02-26T03:45:34.389Z,974.90
2023-02-26T03:46:34.416Z,974.92
2023-02-26T03:47:34.350Z,974.95
2023-02-26T03:48:34.344Z,974.91
2023-02-26T03:49:34.335Z,974.97
2023-02-26T04:03:04.487Z,975.15
2023-02-26T04:04:04.472Z,975.16
2023-02-26T04:05:04.442Z,975.19
2023-02-26T04:06:13.123Z,975.27
2023-02-26T04:07:04.405Z,975.20
2023-02-26T04:08:04.426Z,975.25
2023-02-26T04:09:04.394Z,975.22
2023-02-26T04:10:04.375Z,975.26
2023-02-26T04:11:04.379Z,975.23
2023-02-26T04:12:04.355Z,975.33
2023-02-26T04:13:04.379Z,975.36
2023-02-26T04:14:04.324Z,975.33
2023-02-26T04:15:04.315Z,975.32
2023-02-26T04:16:04.320Z,975.35
2023-02-26T04:17:04.300Z,975.30
2023-02-26T04:18:04.285Z,975.32
2023-02-26T04:19:04.257Z,975.34
2023-02-26T04:20:04.264Z,975.36
2023-02-26T04:21:04.249Z,975.40
2023-02-26T04:22:04.228Z,975.34
2023-02-26T04:23:04.240Z,975.28
2023-02-26T04:24:04.229Z,975.32
2023-02-26T04:25:04.186Z,975.27
2023-02-26T04:26:04.175Z,975.33
2023-02-26T04:27:04.179Z,975.34
2023-02-26T04:28:04.142Z,975.31
2023-02-26T04:29:04.209Z,975.36
2023-02-26T04:30:04.122Z,975.36
2023-02-26T04:31:04.244Z,975.34
2023-02-26T04:32:04.219Z,975.40
2023-02-26T04:33:04.083Z,975.42
2023-02-26T04:34:04.086Z,975.42
2023-02-26T04:35:04.064Z,975.44
2023-02-26T04:36:04.061Z,975.41
2023-02-26T04:37:04.049Z,975.41
2023-02-26T04:38:04.023Z,975.47
2023-02-26T04:39:04.012Z,975.49
2023-02-26T04:40:04.007Z,975.40
2023-02-26T04:41:04.002Z,975.55
2023-02-26T04:42:03.984Z,975.50
2023-02-26T04:43:03.972Z,975.55
2023-02-26T04:44:03.969Z,975.53
2023-02-26T04:45:03.938Z,975.61
2023-02-26T04:46:03.996Z,975.62
2023-02-26T04:47:03.918Z,975.61
2023-02-26T04:48:03.891Z,975.54
2023-02-26T04:49:03.897Z,975.58
2023-02-26T04:50:03.877Z,975.59
2023-02-26T04:51:03.869Z,975.66
2023-02-26T04:52:03.863Z,975.67
2023-02-26T04:53:03.843Z,975.63
2023-02-26T04:54:03.815Z,975.67
2023-02-26T04:55:03.824Z,975.67
2023-02-26T04:56:03.808Z,975.68
2023-02-26T04:57:03.797Z,975.71
2023-02-26T04:58:03.788Z,975.73
2023-02-26T04:59:03.774Z,975.68
2023-02-26T05:00:03.737Z,975.71
2023-02-26T05:01:03.758Z,975.69
2023-02-26T05:02:03.727Z,975.75
2023-02-26T05:03:03.718Z,975.76
2023-02-26T05:04:03.691Z,975.71
2023-02-26T05:05:03.712Z,975.78
2023-02-26T05:06:03.689Z,975.82
2023-02-26T05:07:03.712Z,975.79
2023-02-26T05:08:03.652Z,975.74
2023-02-26T05:09:03.643Z,975.82
2023-02-26T05:10:03.631Z,975.87
2023-02-26T05:11:03.641Z,975.79
2023-02-26T05:12:03.608Z,975.84
2023-02-26T05:13:03.621Z,975.87
2023-02-26T05:14:03.590Z,975.90
2023-02-26T05:15:03.582Z,975.95
2023-02-26T05:16:03.622Z,975.93
2023-02-26T05:17:03.552Z,975.93
2023-02-26T05:18:03.537Z,975.93
2023-02-26T05:19:03.525Z,975.96
2023-02-26T05:20:03.501Z,975.92
2023-02-26T05:21:03.501Z,975.96
2023-02-26T05:22:03.497Z,975.93
2023-02-26T05:23:03.481Z,975.90
2023-02-26T05:24:03.456Z,975.89
2023-02-26T05:25:03.446Z,975.94
2023-02-26T05:26:03.432Z,975.97
2023-02-26T05:27:03.421Z,975.98
2023-02-26T05:28:03.411Z,975.98
2023-02-26T05:29:03.393Z,975.97
2023-02-26T05:30:03.387Z,975.91
2023-02-26T05:31:03.469Z,975.99
2023-02-26T05:32:03.438Z,976.01
2023-02-26T05:33:03.361Z,975.96
2023-02-26T05:34:03.334Z,975.96
2023-02-26T05:35:03.316Z,975.98
2023-02-26T05:36:03.321Z,975.95
2023-02-26T05:37:03.310Z,976.02
2023-02-26T05:38:03.281Z,976.02
2023-02-26T05:39:03.279Z,975.97
2023-02-26T05:40:03.270Z,976.00
2023-02-26T05:41:03.260Z,976.00
2023-02-26T05:42:03.253Z,975.95
2023-02-26T05:43:03.234Z,976.03
2023-02-26T05:44:03.201Z,975.98
2023-02-26T05:45:03.201Z,976.07
2023-02-26T05:46:03.181Z,976.03
2023-02-26T05:47:03.212Z,976.03
2023-02-26T05:48:03.162Z,976.05
2023-02-26T05:49:03.153Z,976.04
2023-02-26T05:50:03.133Z,976.07
2023-02-26T05:51:03.113Z,976.06
2023-02-26T05:52:03.154Z,976.03
2023-02-26T05:53:03.101Z,976.11
2023-02-26T05:54:03.090Z,976.07
2023-02-26T05:55:03.067Z,976.12
2023-02-26T05:56:03.066Z,976.12
2023-02-26T05:57:03.052Z,976.15
2023-02-26T05:58:03.035Z,976.18
2023-02-26T05:59:03.021Z,976.17
2023-02-26T06:00:03.013Z,976.18
2023-02-26T06:01:03.002Z,976.16
2023-02-26T06:02:03.092Z,976.25
2023-02-26T06:03:03.039Z,976.24
2023-02-26T06:04:02.961Z,976.22
2023-02-26T06:05:02.947Z,976.24
2023-02-26T06:06:02.965Z,976.18
2023-02-26T06:07:02.954Z,976.22
2023-02-26T06:08:02.923Z,976.30
2023-02-26T06:09:02.889Z,976.32
2023-02-26T06:10:02.896Z,976.34
2023-02-26T06:11:02.876Z,976.38
2023-02-26T06:12:02.872Z,976.38
2023-02-26T06:13:02.880Z,976.32
2023-02-26T06:14:02.858Z,976.35
2023-02-26T06:15:02.813Z,976.37
2023-02-26T06:16:02.880Z,976.35
2023-02-26T06:17:02.798Z,976.36
2023-02-26T06:18:02.816Z,976.39
2023-02-26T06:19:02.777Z,976.38
2023-02-26T06:20:02.768Z,976.43
2023-02-26T06:21:02.748Z,976.42
2023-02-26T06:22:02.733Z,976.47
2023-02-26T06:23:02.730Z,976.43
2023-02-26T06:24:02.725Z,976.48
2023-02-26T06:25:02.702Z,976.45
2023-02-26T06:26:02.681Z,976.47
2023-02-26T06:27:02.678Z,976.38
2023-02-26T06:28:02.675Z,976.41
2023-02-26T06:29:02.648Z,976.50
2023-02-26T06:30:02.645Z,976.47
2023-02-26T06:31:02.692Z,976.53
2023-02-26T06:32:02.704Z,976.45
2023-02-26T06:33:02.598Z,976.48
2023-02-26T06:34:02.590Z,976.54
2023-02-26T06:35:02.598Z,976.52
2023-02-26T06:36:02.575Z,976.50
2023-02-26T06:37:02.554Z,976.53
2023-02-26T06:38:02.552Z,976.59
2023-02-26T06:39:02.524Z,976.58
2023-02-26T06:40:02.522Z,976.62
2023-02-26T06:41:02.509Z,976.68
2023-02-26T06:42:02.493Z,976.66
2023-02-26T06:43:02.493Z,976.66
2023-02-26T06:44:02.502Z,976.65
2023-02-26T06:45:02.454Z,976.74
2023-02-26T06:46:02.457Z,976.79
2023-02-26T06:47:02.424Z,976.80
2023-02-26T06:48:02.493Z,976.81
2023-02-26T06:49:02.414Z,976.90
2023-02-26T06:50:02.436Z,976.93
2023-02-26T06:51:02.382Z,976.95
2023-02-26T06:52:02.386Z,976.94
2023-02-26T06:53:02.365Z,976.91
2023-02-26T06:54:02.344Z,976.97
2023-02-26T06:55:02.336Z,977.07
2023-02-26T06:56:02.322Z,977.03
2023-02-26T06:57:02.312Z,977.08
2023-02-26T06:58:02.323Z,977.09
2023-02-26T06:59:02.305Z,977.12
2023-02-26T07:00:02.306Z,977.13
2023-02-26T07:01:02.377Z,977.09
2023-02-26T07:02:02.296Z,977.19
2023-02-26T07:03:02.268Z,977.13
2023-02-26T07:04:02.270Z,977.14
2023-02-26T07:05:02.194Z,977.16
2023-02-26T07:06:23.735Z,977.25
2023-02-26T07:07:03.184Z,977.22
2023-02-26T07:08:02.191Z,977.30
2023-02-26T07:09:02.241Z,977.28
2023-02-26T07:10:02.187Z,977.29
2023-02-26T07:11:02.135Z,977.38
2023-02-26T07:12:02.142Z,977.35
2023-02-26T07:13:02.145Z,977.35
2023-02-26T07:14:02.113Z,977.34
2023-02-26T07:15:02.172Z,977.38
2023-02-26T07:16:02.088Z,977.45
2023-02-26T07:17:02.138Z,977.41
2023-02-26T07:18:02.061Z,977.36
2023-02-26T07:19:02.042Z,977.44
2023-02-26T07:20:02.040Z,977.40
2023-02-26T07:21:02.029Z,977.48
2023-02-26T07:22:02.017Z,977.44
2023-02-26T07:23:02.007Z,977.52
2023-02-26T07:24:01.986Z,977.51
2023-02-26T07:25:01.985Z,977.47
2023-02-26T07:26:01.951Z,977.51
2023-02-26T07:27:01.934Z,977.49
2023-02-26T07:28:01.933Z,977.53
2023-02-26T07:29:01.928Z,977.61
2023-02-26T07:30:01.947Z,977.56
2023-02-26T07:31:01.940Z,977.60
2023-02-26T07:32:01.997Z,977.61
2023-02-26T07:33:01.881Z,977.57
2023-02-26T07:34:01.873Z,977.63
2023-02-26T07:35:01.832Z,977.63
2023-02-26T07:36:01.848Z,977.64
2023-02-26T07:37:01.815Z,977.66
2023-02-26T07:38:01.803Z,977.68
2023-02-26T07:39:01.799Z,977.62
2023-02-26T07:40:01.796Z,977.68
2023-02-26T07:41:01.749Z,977.69
2023-02-26T07:42:01.755Z,977.69
2023-02-26T07:43:01.732Z,977.69
2023-02-26T07:44:01.737Z,977.72
2023-02-26T07:45:01.701Z,977.68
2023-02-26T07:46:01.740Z,977.65
2023-02-26T07:47:01.678Z,977.70
2023-02-26T07:48:01.678Z,977.73
2023-02-26T07:49:01.677Z,977.70
2023-02-26T07:50:01.725Z,977.73
2023-02-26T07:51:01.659Z,977.73
2023-02-26T07:52:01.620Z,977.72
2023-02-26T07:53:01.643Z,977.76
2023-02-26T07:54:01.625Z,977.84
2023-02-26T07:55:01.610Z,977.80
2023-02-26T07:56:01.566Z,977.89
2023-02-26T07:57:01.589Z,977.83
2023-02-26T07:58:01.557Z,977.86
2023-02-26T07:59:01.551Z,977.85
2023-02-26T08:00:01.577Z,977.83
2023-02-26T08:01:01.520Z,977.86
2023-02-26T08:02:01.488Z,977.88
2023-02-26T08:03:01.483Z,977.87
2023-02-26T08:04:01.556Z,977.92
2023-02-26T08:05:01.484Z,977.93
2023-02-26T08:06:01.447Z,977.92
2023-02-26T08:07:01.434Z,977.92
2023-02-26T08:08:01.422Z,977.92
2023-02-26T08:09:01.459Z,977.95
2023-02-26T08:10:01.400Z,977.94
2023-02-26T08:11:01.382Z,977.98
2023-02-26T08:12:01.375Z,977.95
2023-02-26T08:13:01.345Z,978.00
2023-02-26T08:14:01.384Z,977.97
2023-02-26T08:15:01.337Z,977.98
2023-02-26T08:16:01.344Z,978.02
2023-02-26T08:17:01.310Z,978.03
2023-02-26T08:18:01.294Z,978.04
2023-02-26T08:19:01.287Z,978.06
2023-02-26T08:20:01.274Z,977.99
2023-02-26T08:21:01.268Z,978.10
2023-02-26T08:22:01.235Z,978.03
2023-02-26T08:23:01.236Z,978.06
2023-02-26T08:24:01.239Z,978.05
2023-02-26T08:25:01.222Z,978.06
2023-02-26T08:26:01.188Z,978.10
2023-02-26T08:27:01.195Z,978.04
2023-02-26T08:28:01.198Z,978.04
2023-02-26T08:29:01.191Z,978.11
2023-02-26T08:30:01.162Z,978.08
2023-02-26T08:31:01.246Z,978.08
2023-02-26T08:32:01.199Z,978.07
2023-02-26T08:33:01.115Z,978.09
2023-02-26T08:34:01.098Z,978.15
2023-02-26T08:35:01.113Z,978.04
2023-02-26T08:36:01.075Z,978.05
2023-02-26T08:37:01.087Z,978.05
2023-02-26T08:38:01.054Z,978.07
2023-02-26T08:39:01.037Z,978.05
2023-02-26T08:40:01.033Z,978.09
2023-02-26T08:41:00.996Z,978.11
2023-02-26T08:42:01.017Z,978.11
2023-02-26T08:43:01.007Z,978.10
2023-02-26T08:44:00.966Z,978.13
2023-02-26T08:45:00.961Z,978.19
2023-02-26T08:46:00.978Z,978.21
2023-02-26T08:47:00.947Z,978.23
2023-02-26T08:48:00.929Z,978.30
2023-02-26T08:49:00.905Z,978.25
2023-02-26T08:50:00.910Z,978.30
2023-02-26T08:51:00.877Z,978.40
2023-02-26T08:52:00.866Z,978.41
2023-02-26T08:53:00.857Z,978.37
2023-02-26T08:54:00.857Z,978.43
2023-02-26T08:55:00.838Z,978.45
2023-02-26T08:56:00.817Z,978.48
2023-02-26T08:57:00.833Z,978.56
2023-02-26T08:58:00.791Z,978.55
2023-02-26T08:59:00.777Z,978.55
2023-02-26T09:00:00.785Z,978.56
2023-02-26T09:01:00.796Z,978.63
2023-02-26T09:02:00.799Z,978.63
2023-02-26T09:03:00.784Z,978.62
2023-02-26T09:04:00.721Z,978.67
2023-02-26T09:05:00.718Z,978.71
2023-02-26T09:06:00.697Z,978.60
2023-02-26T09:07:00.687Z,978.69
2023-02-26T09:08:00.710Z,978.67
2023-02-26T09:09:00.686Z,978.74
2023-02-26T09:10:00.661Z,978.70
2023-02-26T09:11:00.626Z,978.66
2023-02-26T09:12:00.620Z,978.70
2023-02-26T09:13:00.638Z,978.75
2023-02-26T09:14:00.592Z,978.79
2023-02-26T09:15:00.600Z,978.84
2023-02-26T09:16:00.629Z,978.81
2023-02-26T09:17:00.572Z,978.81
2023-02-26T09:18:00.540Z,978.81
2023-02-26T09:19:00.540Z,978.77
2023-02-26T09:20:00.529Z,978.75
2023-02-26T09:21:00.528Z,978.69
2023-02-26T09:22:00.493Z,978.69
2023-02-26T09:23:00.480Z,978.82
2023-02-26T09:24:00.481Z,978.79
2023-02-26T09:25:00.478Z,978.74
2023-02-26T09:26:00.460Z,978.75
2023-02-26T09:27:00.458Z,978.75
2023-02-26T09:28:00.434Z,978.74
2023-02-26T09:29:00.408Z,978.79
2023-02-26T09:30:00.414Z,978.80
2023-02-26T09:31:00.404Z,978.86
2023-02-26T09:32:00.501Z,978.84
2023-02-26T09:33:00.355Z,978.86
2023-02-26T09:34:00.348Z,978.89
2023-02-26T09:35:00.330Z,978.90
2023-02-26T09:36:00.338Z,978.93
2023-02-26T09:37:00.305Z,978.94
2023-02-26T09:38:00.290Z,978.97
2023-02-26T09:39:00.269Z,978.99
2023-02-26T09:40:00.292Z,979.00
2023-02-26T09:41:00.258Z,978.99
2023-02-26T09:42:00.242Z,979.00
2023-02-26T09:43:00.217Z,979.03
2023-02-26T09:44:00.229Z,979.06
2023-02-26T09:45:00.358Z,979.08
2023-02-26T09:46:00.264Z,979.06
2023-02-26T09:47:00.179Z,979.09
2023-02-26T10:03:09.906Z,979.28
2023-02-26T10:04:09.893Z,979.27
2023-02-26T10:05:09.851Z,979.35
2023-02-26T10:06:09.874Z,979.29
2023-02-26T10:07:09.835Z,979.34
2023-02-26T10:08:09.831Z,979.32
2023-02-26T10:09:09.801Z,979.31
2023-02-26T10:10:09.816Z,979.35
2023-02-26T10:11:09.818Z,979.38
2023-02-26T10:12:09.773Z,979.36
2023-02-26T10:13:09.763Z,979.38
2023-02-26T10:14:09.780Z,979.37
2023-02-26T10:15:09.765Z,979.44
2023-02-26T10:16:12.245Z,979.39
2023-02-26T10:17:09.712Z,979.40
2023-02-26T10:18:09.713Z,979.41
2023-02-26T10:19:09.680Z,979.45
2023-02-26T10:20:09.686Z,979.50
2023-02-26T10:21:09.663Z,979.42
2023-02-26T10:22:09.672Z,979.49
2023-02-26T10:23:09.643Z,979.44
2023-02-26T10:24:09.614Z,979.43
2023-02-26T10:25:09.615Z,979.49
2023-02-26T10:26:09.624Z,979.50
2023-02-26T10:27:09.594Z,979.61
2023-02-26T10:28:09.593Z,979.52
2023-02-26T10:29:09.562Z,979.50
2023-02-26T10:30:09.564Z,979.60
2023-02-26T10:31:09.665Z,979.58
2023-02-26T10:32:09.594Z,979.49
2023-02-26T10:33:09.503Z,979.46
2023-02-26T10:34:09.500Z,979.48
2023-02-26T10:35:09.517Z,979.52
2023-02-26T10:36:09.480Z,979.42
2023-02-26T10:37:09.442Z,979.44
2023-02-26T10:38:09.439Z,979.41
2023-02-26T10:39:09.428Z,979.45
2023-02-26T10:40:09.414Z,979.46
2023-02-26T10:41:09.417Z,979.45
2023-02-26T10:42:09.377Z,979.40
2023-02-26T10:43:09.394Z,979.41
2023-02-26T10:44:09.356Z,979.42
2023-02-26T10:45:09.344Z,979.39
2023-02-26T10:46:09.396Z,979.42
2023-02-26T10:47:09.356Z,979.44
2023-02-26T10:48:09.320Z,979.45
2023-02-26T10:49:09.298Z,979.47
2023-02-26T10:50:09.293Z,979.48
2023-02-26T10:51:09.277Z,979.51
2023-02-26T10:52:09.247Z,979.47
2023-02-26T10:53:09.261Z,979.50
2023-02-26T10:54:09.227Z,979.51
2023-02-26T10:55:09.216Z,979.54
2023-02-26T10:56:09.229Z,979.53
2023-02-26T10:57:09.203Z,979.55
2023-02-26T10:58:09.177Z,979.41
2023-02-26T10:59:09.178Z,979.56
2023-02-26T11:00:09.149Z,979.46
2023-02-26T11:01:09.165Z,979.57
2023-02-26T11:02:09.205Z,979.43
2023-02-26T11:03:09.173Z,979.45
2023-02-26T11:04:09.121Z,979.39
2023-02-26T11:05:09.086Z,979.54
2023-02-26T11:06:09.100Z,979.46
2023-02-26T11:07:09.062Z,979.48
2023-02-26T11:08:09.041Z,979.47
2023-02-26T11:09:09.071Z,979.50
2023-02-26T11:10:09.027Z,979.46
2023-02-26T11:11:09.027Z,979.51
2023-02-26T11:12:09.012Z,979.43
2023-02-26T11:13:08.989Z,979.50
2023-02-26T11:14:08.981Z,979.58
2023-02-26T11:15:08.974Z,979.44
2023-02-26T11:16:09.079Z,979.34
2023-02-26T11:17:08.952Z,979.36
2023-02-26T11:18:08.935Z,979.41
2023-02-26T11:19:08.938Z,979.43
2023-02-26T11:20:08.922Z,979.40
2023-02-26T11:21:08.886Z,979.44
2023-02-26T11:22:08.880Z,979.43
2023-02-26T11:23:08.874Z,979.44
2023-02-26T11:24:08.837Z,979.43
2023-02-26T11:25:08.878Z,979.46
2023-02-26T11:26:08.821Z,979.37
2023-02-26T11:27:08.800Z,979.41
2023-02-26T11:28:08.844Z,979.41
2023-02-26T11:29:08.768Z,979.36
2023-02-26T11:30:08.829Z,979.33
2023-02-26T11:31:08.863Z,979.25
2023-02-26T11:32:08.834Z,979.27
2023-02-26T11:33:08.773Z,979.26
2023-02-26T11:34:08.713Z,979.19
2023-02-26T11:35:08.713Z,979.17
2023-02-26T11:36:08.699Z,979.03
2023-02-26T11:37:08.671Z,979.13
2023-02-26T11:38:08.717Z,979.09
2023-02-26T11:39:08.647Z,979.13
2023-02-26T11:40:08.656Z,979.13
2023-02-26T11:41:08.637Z,979.22
2023-02-26T11:42:08.623Z,979.20
2023-02-26T11:43:08.635Z,979.23
2023-02-26T11:44:08.572Z,979.19
2023-02-26T11:45:08.569Z,979.24
2023-02-26T11:46:08.604Z,979.24
2023-02-26T11:47:08.540Z,979.33
2023-02-26T11:48:08.544Z,979.27
2023-02-26T11:49:08.509Z,979.27
2023-02-26T11:50:08.502Z,979.23
2023-02-26T11:51:08.493Z,979.24
2023-02-26T11:52:08.497Z,979.14
2023-02-26T11:53:08.471Z,979.24
2023-02-26T11:54:08.442Z,979.21
2023-02-26T11:55:08.422Z,979.19
2023-02-26T11:56:08.431Z,979.17
2023-02-26T11:57:08.403Z,979.20
2023-02-26T11:58:08.400Z,979.13
2023-02-26T11:59:08.370Z,978.96
2023-02-26T12:00:08.374Z,979.01
2023-02-26T12:01:08.362Z,979.02
2023-02-26T12:02:08.339Z,979.05
2023-02-26T12:03:08.369Z,979.06
2023-02-26T12:04:08.331Z,979.06
2023-02-26T12:05:08.314Z,979.16
2023-02-26T12:06:08.308Z,979.10
2023-02-26T12:07:08.271Z,979.04
2023-02-26T12:08:08.262Z,979.05
2023-02-26T12:09:08.299Z,979.02
2023-02-26T12:10:08.241Z,978.98
2023-02-26T12:11:08.236Z,978.96
2023-02-26T12:12:08.211Z,978.86
2023-02-26T12:13:08.215Z,978.87
2023-02-26T12:14:08.196Z,978.67
2023-02-26T12:15:08.172Z,978.60
2023-02-26T12:16:08.257Z,978.63
2023-02-26T12:17:08.134Z,978.81
2023-02-26T12:18:08.141Z,978.85
2023-02-26T12:19:08.116Z,978.73
2023-02-26T12:20:08.125Z,978.78
2023-02-26T12:21:08.092Z,978.77
2023-02-26T12:22:08.098Z,978.79
2023-02-26T12:23:08.075Z,978.86
2023-02-26T12:24:08.064Z,978.87
2023-02-26T12:25:08.046Z,978.85
2023-02-26T12:26:08.051Z,978.82
2023-02-26T12:27:08.006Z,978.95
2023-02-26T12:28:08.013Z,978.94
2023-02-26T12:29:07.977Z,979.15
2023-02-26T12:30:07.978Z,978.96
2023-02-26T12:31:08.129Z,978.98
2023-02-26T12:32:08.024Z,978.94
2023-02-26T12:33:07.947Z,978.95
2023-02-26T12:34:07.934Z,979.08
2023-02-26T12:35:07.909Z,979.03
2023-02-26T12:36:07.912Z,979.01
2023-02-26T12:37:07.881Z,978.87
2023-02-26T12:38:07.908Z,978.82
2023-02-26T12:39:07.875Z,978.83
2023-02-26T12:40:07.861Z,978.84
2023-02-26T12:41:07.845Z,978.75
2023-02-26T12:42:07.825Z,978.88
2023-02-26T12:43:07.823Z,978.88
2023-02-26T12:44:07.813Z,978.87
2023-02-26T12:45:07.777Z,978.91
2023-02-26T12:46:07.774Z,978.94
2023-02-26T12:47:07.750Z,978.91
2023-02-26T12:48:07.741Z,979.05
2023-02-26T12:49:07.756Z,979.01
2023-02-26T12:50:07.718Z,979.06
2023-02-26T12:51:07.718Z,979.08
2023-02-26T12:52:07.695Z,979.13
2023-02-26T12:53:07.676Z,979.15
2023-02-26T12:54:07.694Z,979.13
2023-02-26T12:55:07.636Z,979.09
2023-02-26T12:56:07.634Z,979.19